createdAt,value
2019-02-08T00:01:28.451Z,73.47
2019-02-08T00:03:59.998Z,73.49
2019-02-08T00:06:31.463Z,74.00
2019-02-08T00:09:02.733Z,73.45
2019-02-08T00:11:34.081Z,73.24
2019-02-08T00:14:05.466Z,72.79
2019-02-08T00:16:36.732Z,72.90
2019-02-08T00:19:08.126Z,72.84
2019-02-08T00:21:40.635Z,73.14
2019-02-08T00:24:11.819Z,72.92
2019-02-08T00:26:43.130Z,72.47
2019-02-08T00:29:14.353Z,73.41
2019-02-08T00:31:45.779Z,73.16
2019-02-08T00:34:17.002Z,72.94
2019-02-08T00:36:48.505Z,73.17
2019-02-08T00:39:19.912Z,73.01
2019-02-08T00:41:51.602Z,73.01
2019-02-08T00:44:22.848Z,72.93
2019-02-08T00:46:54.129Z,73.19
2019-02-08T00:49:25.539Z,73.25
2019-02-08T00:51:58.222Z,73.62
2019-02-08T00:54:29.537Z,73.52
2019-02-08T00:57:00.821Z,73.93
2019-02-08T00:59:32.061Z,73.92
2019-02-08T01:02:03.357Z,73.69
2019-02-08T01:04:34.622Z,73.49
2019-02-08T01:07:05.968Z,73.72
2019-02-08T01:09:40.916Z,73.98
2019-02-08T01:12:12.472Z,74.02
2019-02-08T01:14:43.723Z,74.00
2019-02-08T01:17:18.103Z,73.71
2019-02-08T01:19:49.327Z,73.95
2019-02-08T01:22:24.686Z,73.84
2019-02-08T01:24:55.904Z,74.18
2019-02-08T01:27:28.898Z,74.22
2019-02-08T01:30:00.221Z,74.55
2019-02-08T01:32:33.389Z,74.79
2019-02-08T01:35:05.849Z,74.43
2019-02-08T01:37:37.191Z,74.56
2019-02-08T01:40:13.123Z,75.28
2019-02-08T01:42:46.113Z,74.22
2019-02-08T01:45:21.262Z,74.50
2019-02-08T01:47:52.748Z,75.17
2019-02-08T01:50:27.280Z,75.16
2019-02-08T01:53:00.351Z,74.59
2019-02-08T01:55:31.878Z,74.58
2019-02-08T01:58:03.405Z,74.81
2019-02-08T02:00:40.874Z,74.99
2019-02-08T02:03:13.130Z,75.17
2019-02-08T02:05:44.839Z,75.30
2019-02-08T02:08:15.987Z,75.55
2019-02-08T02:10:47.775Z,74.93
2019-02-08T02:13:19.150Z,75.37
2019-02-08T02:15:50.441Z,75.87
2019-02-08T02:18:21.607Z,75.79
2019-02-08T02:20:52.859Z,75.93
2019-02-08T02:23:26.162Z,75.93
2019-02-08T02:25:57.434Z,76.01
2019-02-08T02:28:28.697Z,76.35
2019-02-08T02:30:59.945Z,76.00
2019-02-08T02:33:31.218Z,76.33
2019-02-08T02:36:02.581Z,76.47
2019-02-08T02:38:33.828Z,75.43
2019-02-08T02:41:05.023Z,76.46
2019-02-08T02:43:36.390Z,76.14
2019-02-08T02:46:07.714Z,76.32
2019-02-08T02:48:38.972Z,76.97
2019-02-08T02:51:10.270Z,76.67
2019-02-08T02:53:44.962Z,77.08
2019-02-08T02:56:16.318Z,76.29
2019-02-08T02:58:47.604Z,77.08
2019-02-08T03:01:18.943Z,77.24
2019-02-08T03:03:50.172Z,77.37
2019-02-08T03:06:21.375Z,77.71
2019-02-08T03:08:52.657Z,77.53
2019-02-08T03:11:23.920Z,78.07
2019-02-08T03:13:55.157Z,78.83
2019-02-08T03:16:26.616Z,79.36
2019-02-08T03:18:57.947Z,79.95
2019-02-08T03:21:29.319Z,80.21
2019-02-08T03:24:03.766Z,80.50
2019-02-08T03:26:34.983Z,81.32
2019-02-08T03:29:06.285Z,81.56
2019-02-08T03:31:37.571Z,80.49
2019-02-08T03:34:08.995Z,79.81
2019-02-08T03:36:40.318Z,80.15
2019-02-08T03:39:11.726Z,79.63
2019-02-08T03:41:42.988Z,79.54
2019-02-08T03:44:14.302Z,78.76
2019-02-08T03:46:45.510Z,78.54
2019-02-08T03:49:16.974Z,78.12
2019-02-08T03:51:48.267Z,78.06
2019-02-08T03:54:21.288Z,78.04
2019-02-08T03:56:52.410Z,78.49
2019-02-08T03:59:23.818Z,78.02
2019-02-08T04:01:55.145Z,78.87
2019-02-08T04:04:26.390Z,78.67
2019-02-08T04:06:57.801Z,78.79
2019-02-08T04:09:29.107Z,78.62
2019-02-08T04:12:00.460Z,79.33
2019-02-08T04:14:31.836Z,79.08
2019-02-08T04:17:03.064Z,79.48
2019-02-08T04:19:34.351Z,79.46
2019-02-08T04:22:05.763Z,79.08
2019-02-08T04:24:37.065Z,79.37
2019-02-08T04:27:08.403Z,78.45
2019-02-08T04:29:39.669Z,78.35
2019-02-08T04:32:13.676Z,78.00
2019-02-08T04:34:45.009Z,78.78
2019-02-08T04:37:16.257Z,79.19
2019-02-08T04:39:47.543Z,78.98
2019-02-08T04:42:18.820Z,79.24
2019-02-08T04:44:50.283Z,79.08
2019-02-08T04:47:21.558Z,79.53
2019-02-08T04:49:52.997Z,79.03
2019-02-08T04:52:24.531Z,79.27
2019-02-08T04:54:55.982Z,80.60
2019-02-08T04:57:27.485Z,82.08
2019-02-08T04:59:58.944Z,84.29
2019-02-08T05:02:30.427Z,86.04
2019-02-08T05:05:01.850Z,87.06
2019-02-08T05:07:33.563Z,88.56
2019-02-08T05:10:06.761Z,88.88
2019-02-08T05:12:38.270Z,88.70
2019-02-08T05:15:10.607Z,88.82
2019-02-08T05:17:42.116Z,89.46
2019-02-08T05:20:16.066Z,89.68
2019-02-08T05:22:47.452Z,90.31
2019-02-08T05:25:20.042Z,90.01
2019-02-08T05:27:52.708Z,91.30
2019-02-08T05:30:30.968Z,91.75
2019-02-08T05:33:02.845Z,90.91
2019-02-08T05:35:34.223Z,90.64
2019-02-08T05:38:05.895Z,89.90
2019-02-08T05:40:37.396Z,89.95
2019-02-08T05:43:08.795Z,90.29
2019-02-08T05:45:40.165Z,89.98
2019-02-08T05:48:11.538Z,89.76
2019-02-08T05:50:42.874Z,90.14
2019-02-08T05:53:14.456Z,90.29
2019-02-08T05:55:45.888Z,90.70
2019-02-08T05:58:17.190Z,90.31
2019-02-08T06:00:58.268Z,90.45
2019-02-08T06:03:29.774Z,90.38
2019-02-08T06:06:01.367Z,88.60
2019-02-08T06:08:32.709Z,88.13
2019-02-08T06:11:03.993Z,87.60
2019-02-08T06:13:37.708Z,86.30
2019-02-08T06:16:09.466Z,87.16
2019-02-08T06:18:40.802Z,86.99
2019-02-08T06:21:12.422Z,87.37
2019-02-08T06:23:43.785Z,86.45
2019-02-08T06:26:15.240Z,86.77
2019-02-08T06:28:46.623Z,86.68
2019-02-08T06:31:17.991Z,86.60
2019-02-08T06:33:49.279Z,87.24
2019-02-08T06:36:20.588Z,87.66
2019-02-08T06:38:51.868Z,86.78
2019-02-08T06:41:23.152Z,87.01
2019-02-08T06:43:54.421Z,86.84
2019-02-08T06:46:26.568Z,86.43
2019-02-08T06:48:57.881Z,85.93
2019-02-08T06:51:29.101Z,85.38
2019-02-08T06:54:00.332Z,84.96
2019-02-08T06:56:49.262Z,85.78
2019-02-08T06:59:33.932Z,85.81
2019-02-08T07:02:39.320Z,85.45
2019-02-08T07:05:33.348Z,85.08
2019-02-08T07:08:35.543Z,85.06
2019-02-08T07:11:24.629Z,85.68
2019-02-08T07:14:14.622Z,84.47
2019-02-08T07:17:13.577Z,84.74
2019-02-08T07:20:12.565Z,83.72
2019-02-08T07:22:54.807Z,84.03
2019-02-08T07:25:43.568Z,82.44
2019-02-08T07:28:23.739Z,82.46
2019-02-08T07:31:13.718Z,81.27
2019-02-08T07:34:10.025Z,80.95
2019-02-08T07:36:50.842Z,80.74
2019-02-08T07:39:45.633Z,81.08
2019-02-08T07:42:34.891Z,80.99
2019-02-08T07:45:17.148Z,80.99
2019-02-08T07:48:05.086Z,80.98
2019-02-08T07:50:44.526Z,80.65
2019-02-08T07:53:37.760Z,79.82
2019-02-08T07:56:34.066Z,79.35
2019-02-08T07:59:15.634Z,79.08
2019-02-08T08:02:04.669Z,78.42
2019-02-08T08:05:04.430Z,78.47
2019-02-08T08:08:00.359Z,78.02
2019-02-08T08:10:50.537Z,77.91
2019-02-08T08:13:27.750Z,76.80
2019-02-08T08:16:16.727Z,76.77
2019-02-08T08:19:02.833Z,75.29
2019-02-08T08:21:51.739Z,74.54
2019-02-08T08:24:47.833Z,74.99
2019-02-08T08:27:48.239Z,74.48
2019-02-08T08:30:34.059Z,74.96
2019-02-08T08:33:21.833Z,74.50
2019-02-08T08:36:54.253Z,74.45
2019-02-08T08:40:23.732Z,73.80
2019-02-08T08:43:53.618Z,73.36
2019-02-08T08:47:10.095Z,73.44
2019-02-08T08:50:23.436Z,73.24
2019-02-08T08:54:15.962Z,73.96
2019-02-08T08:57:27.079Z,73.74
2019-02-08T09:00:54.117Z,73.76
2019-02-08T09:04:39.479Z,73.31
2019-02-08T09:08:23.319Z,73.38
2019-02-08T09:12:00.794Z,72.41
2019-02-08T09:15:35.968Z,73.76
2019-02-08T09:18:54.913Z,72.75
2019-02-08T09:22:09.529Z,73.41
2019-02-08T09:25:50.329Z,71.24
2019-02-08T09:29:20.315Z,71.21
2019-02-08T09:32:38.447Z,72.28
2019-02-08T09:35:53.379Z,74.01
2019-02-08T09:39:18.552Z,75.31
2019-02-08T09:42:49.936Z,76.08
2019-02-08T09:46:15.422Z,75.30
2019-02-08T09:49:40.825Z,75.25
2019-02-08T09:53:18.645Z,74.88
2019-02-08T09:56:51.895Z,72.61
2019-02-08T10:00:17.520Z,71.83
2019-02-08T10:04:03.290Z,72.05
2019-02-08T10:07:37.573Z,72.18
2019-02-08T10:10:58.840Z,70.46
2019-02-08T10:14:23.735Z,69.41
2019-02-08T10:18:01.698Z,69.58
2019-02-08T10:21:38.116Z,69.39
2019-02-08T10:25:35.053Z,68.48
2019-02-08T10:28:52.344Z,68.29
2019-02-08T10:32:15.979Z,68.55
2019-02-08T10:35:51.777Z,69.23
2019-02-08T10:39:23.466Z,68.62
2019-02-08T10:42:50.548Z,68.94
2019-02-08T10:46:17.196Z,67.96
2019-02-08T10:50:10.256Z,67.66
2019-02-08T10:53:53.313Z,65.97
2019-02-08T10:57:04.306Z,67.14
2019-02-08T11:00:34.924Z,67.63
2019-02-08T11:04:10.724Z,67.30
2019-02-08T11:07:43.275Z,66.69
2019-02-08T11:11:29.249Z,65.58
2019-02-08T11:15:10.314Z,65.07
2019-02-08T11:18:38.815Z,64.59
2019-02-08T11:21:10.154Z,64.79
2019-02-08T11:23:41.416Z,65.61
2019-02-08T11:26:13.484Z,64.56
2019-02-08T11:28:44.935Z,63.41
2019-02-08T11:31:16.313Z,64.44
2019-02-08T11:33:47.606Z,62.91
2019-02-08T11:36:18.942Z,62.81
2019-02-08T11:38:50.188Z,62.69
2019-02-08T11:41:21.610Z,63.53
2019-02-08T11:43:52.917Z,63.91
2019-02-08T11:46:24.246Z,64.67
2019-02-08T11:48:55.641Z,63.98
2019-02-08T11:51:26.974Z,64.01
2019-02-08T11:53:58.383Z,64.59
2019-02-08T11:56:30.181Z,65.74
2019-02-08T11:59:01.516Z,64.88
2019-02-08T12:01:38.475Z,64.76
2019-02-08T12:04:10.672Z,63.35
2019-02-08T12:06:42.082Z,64.97
2019-02-08T12:09:18.982Z,64.93
2019-02-08T12:11:50.268Z,66.07
2019-02-08T12:14:21.537Z,67.71
2019-02-08T12:16:52.811Z,69.29
2019-02-08T12:19:24.026Z,69.87
2019-02-08T12:21:56.146Z,69.13
2019-02-08T12:24:27.442Z,67.81
2019-02-08T12:26:59.939Z,67.56
2019-02-08T12:29:31.420Z,66.20
2019-02-08T12:32:02.716Z,66.82
2019-02-08T12:34:34.079Z,67.42
2019-02-08T12:37:05.829Z,67.21
2019-02-08T12:39:37.140Z,66.90
2019-02-08T12:42:08.485Z,68.23
2019-02-08T12:44:39.812Z,69.04
2019-02-08T12:47:11.136Z,71.61
2019-02-08T12:49:42.500Z,72.08
2019-02-08T12:52:13.900Z,71.92
2019-02-08T12:54:45.267Z,72.55
2019-02-08T12:57:16.639Z,72.39
2019-02-08T12:59:49.623Z,73.80
2019-02-08T13:02:20.961Z,74.18
2019-02-08T13:04:52.212Z,74.46
2019-02-08T13:07:23.571Z,74.68
2019-02-08T13:09:54.915Z,75.73
2019-02-08T13:12:26.179Z,75.63
2019-02-08T13:14:57.468Z,74.76
2019-02-08T13:17:28.645Z,73.80
2019-02-08T13:19:59.967Z,72.83
2019-02-08T13:22:31.262Z,71.89
2019-02-08T13:25:02.591Z,70.54
2019-02-08T13:27:33.815Z,70.42
2019-02-08T13:30:06.806Z,68.96
2019-02-08T13:32:38.071Z,68.99
2019-02-08T13:35:09.647Z,68.76
2019-02-08T13:37:44.122Z,69.42
2019-02-08T13:40:16.776Z,68.34
2019-02-08T13:42:47.960Z,69.39
2019-02-08T13:45:20.644Z,69.04
2019-02-08T13:47:52.077Z,69.50
2019-02-08T13:50:25.558Z,68.92
2019-02-08T13:52:56.735Z,68.41
2019-02-08T13:55:28.813Z,68.37
2019-02-08T13:58:00.067Z,68.57
2019-02-08T14:00:35.171Z,69.11
2019-02-08T14:03:07.182Z,68.16
2019-02-08T14:05:41.170Z,68.31
2019-02-08T14:08:12.421Z,67.18
2019-02-08T14:10:43.726Z,68.54
2019-02-08T14:13:14.970Z,68.37
2019-02-08T14:15:46.392Z,69.02
2019-02-08T14:18:17.711Z,68.81
2019-02-08T14:20:48.978Z,68.40
2019-02-08T14:23:20.308Z,68.31
2019-02-08T14:25:51.599Z,68.94
2019-02-08T14:28:22.867Z,68.77
2019-02-08T14:30:54.417Z,69.95
2019-02-08T14:33:25.698Z,69.75
2019-02-08T14:35:59.502Z,68.74
2019-02-08T14:38:30.823Z,68.90
2019-02-08T14:41:02.202Z,69.10
2019-02-08T14:43:33.498Z,69.17
2019-02-08T14:46:05.305Z,69.22
2019-02-08T14:48:36.560Z,68.81
2019-02-08T14:51:07.725Z,68.95
2019-02-08T14:53:39.028Z,69.42
2019-02-08T14:56:10.472Z,69.13
2019-02-08T14:58:41.790Z,68.44
2019-02-08T15:01:13.034Z,69.89
2019-02-08T15:03:44.409Z,69.02
2019-02-08T15:06:15.677Z,68.26
2019-02-08T15:08:47.042Z,69.40
2019-02-08T15:11:18.389Z,68.76
2019-02-08T15:13:49.737Z,68.69
2019-02-08T15:16:21.233Z,68.31
2019-02-08T15:18:52.488Z,68.63
2019-02-08T15:21:23.830Z,67.76
2019-02-08T15:23:56.440Z,67.78
2019-02-08T15:26:28.037Z,67.81
2019-02-08T15:28:59.331Z,68.53
2019-02-08T15:31:30.706Z,68.38
2019-02-08T15:34:02.128Z,68.68
2019-02-08T15:36:36.491Z,69.76
2019-02-08T15:39:12.750Z,69.69
2019-02-08T15:41:44.142Z,69.44
2019-02-08T15:44:15.382Z,68.84
2019-02-08T15:46:46.812Z,69.34
2019-02-08T15:49:18.032Z,69.29
2019-02-08T15:51:49.451Z,68.92
2019-02-08T15:54:20.854Z,69.20
2019-02-08T15:56:52.180Z,69.30
2019-02-08T15:59:23.454Z,69.11
2019-02-08T16:01:54.673Z,69.04
2019-02-08T16:04:26.384Z,69.81
2019-02-08T16:06:57.677Z,69.09
2019-02-08T16:09:29.034Z,69.98
2019-02-08T16:12:00.265Z,70.11
2019-02-08T16:14:32.872Z,69.76
2019-02-08T16:17:04.248Z,70.12
2019-02-08T16:19:35.566Z,70.40
2019-02-08T16:22:07.467Z,69.49
2019-02-08T16:24:38.768Z,69.84
2019-02-08T16:27:10.277Z,69.62
2019-02-08T16:29:41.526Z,69.80
2019-02-08T16:32:12.847Z,68.87
2019-02-08T16:34:44.106Z,69.02
2019-02-08T16:37:15.549Z,68.76
2019-02-08T16:39:48.281Z,68.82
2019-02-08T16:42:19.671Z,69.10
2019-02-08T16:44:50.979Z,68.94
2019-02-08T16:47:22.295Z,69.62
2019-02-08T16:49:53.549Z,68.82
2019-02-08T16:52:24.942Z,68.59
2019-02-08T16:54:56.209Z,69.07
2019-02-08T16:57:27.519Z,68.95
2019-02-08T16:59:58.778Z,69.01
2019-02-08T17:02:30.130Z,68.40
2019-02-08T17:05:01.413Z,68.07
2019-02-08T17:07:32.718Z,68.36
2019-02-08T17:10:05.482Z,68.60
2019-02-08T17:12:36.809Z,68.34
2019-02-08T17:15:09.953Z,68.27
2019-02-08T17:17:41.376Z,68.36
2019-02-08T17:20:30.190Z,67.95
2019-02-08T17:23:01.630Z,68.48
2019-02-08T17:25:33.130Z,67.83
2019-02-08T17:28:05.713Z,68.00
2019-02-08T17:30:37.338Z,67.56
2019-02-08T17:33:10.151Z,68.44
2019-02-08T17:35:44.275Z,67.45
2019-02-08T17:38:15.516Z,67.70
2019-02-08T17:40:48.489Z,68.51
2019-02-08T17:43:19.749Z,67.77
2019-02-08T17:45:51.097Z,68.49
2019-02-08T17:48:22.343Z,67.09
2019-02-08T17:50:53.662Z,67.19
2019-02-08T17:53:24.947Z,67.28
2019-02-08T17:56:00.283Z,67.18
2019-02-08T17:58:31.618Z,66.63
2019-02-08T18:01:03.780Z,66.63
2019-02-08T18:03:35.154Z,66.97
2019-02-08T18:06:06.401Z,66.83
2019-02-08T18:08:37.768Z,66.47
2019-02-08T18:11:09.028Z,66.95
2019-02-08T18:13:40.547Z,67.01
2019-02-08T18:16:11.972Z,67.38
2019-02-08T18:18:43.247Z,67.03
2019-02-08T18:21:14.602Z,66.19
2019-02-08T18:23:45.867Z,66.26
2019-02-08T18:26:17.140Z,66.72
2019-02-08T18:28:48.577Z,66.21
2019-02-08T18:31:19.775Z,66.22
2019-02-08T18:33:54.041Z,66.28
2019-02-08T18:36:25.479Z,66.33
2019-02-08T18:38:57.361Z,66.49
2019-02-08T18:41:28.794Z,66.25
2019-02-08T18:44:00.134Z,66.15
2019-02-08T18:46:31.369Z,66.50
2019-02-08T18:49:02.781Z,66.33
2019-02-08T18:51:34.116Z,66.80
2019-02-08T18:54:05.333Z,66.30
2019-02-08T18:56:36.612Z,66.08
2019-02-08T18:59:08.073Z,66.85
2019-02-08T19:01:39.469Z,67.51
2019-02-08T19:04:10.878Z,66.77
2019-02-08T19:06:42.137Z,66.24
2019-02-08T19:09:13.587Z,66.35
2019-02-08T19:11:44.935Z,66.14
2019-02-08T19:14:16.287Z,65.90
2019-02-08T19:16:47.595Z,66.37
2019-02-08T19:19:18.910Z,65.66
2019-02-08T19:21:51.148Z,66.15
2019-02-08T19:24:22.516Z,66.00
2019-02-08T19:26:53.744Z,65.74
2019-02-08T19:29:25.053Z,65.74
2019-02-08T19:31:56.293Z,65.90
2019-02-08T19:34:27.666Z,65.98
2019-02-08T19:36:58.979Z,66.35
2019-02-08T19:39:30.298Z,65.89
2019-02-08T19:42:01.606Z,66.07
2019-02-08T19:44:32.941Z,65.72
2019-02-08T19:47:04.313Z,65.47
2019-02-08T19:49:35.636Z,65.29
2019-02-08T19:52:07.555Z,65.18
2019-02-08T19:54:38.865Z,65.28
2019-02-08T19:57:10.231Z,65.79
2019-02-08T19:59:41.604Z,66.18
2019-02-08T20:02:13.087Z,65.46
2019-02-08T20:04:44.535Z,65.24
2019-02-08T20:07:15.845Z,65.75
2019-02-08T20:09:47.572Z,65.19
2019-02-08T20:12:18.993Z,65.27
2019-02-08T20:14:50.163Z,65.72
2019-02-08T20:17:21.481Z,65.56
2019-02-08T20:19:52.931Z,65.16
2019-02-08T20:22:24.269Z,65.19
2019-02-08T20:24:55.626Z,64.96
2019-02-08T20:27:26.898Z,64.71
2019-02-08T20:29:58.219Z,65.94
2019-02-08T20:32:29.605Z,65.75
2019-02-08T20:35:00.904Z,65.42
2019-02-08T20:37:32.134Z,65.59
2019-02-08T20:40:03.543Z,65.27
2019-02-08T20:42:34.849Z,65.18
2019-02-08T20:45:07.932Z,65.32
2019-02-08T20:47:39.293Z,65.40
2019-02-08T20:50:10.863Z,65.22
2019-02-08T20:52:42.266Z,64.89
2019-02-08T20:55:13.961Z,65.96
2019-02-08T20:57:45.306Z,65.71
2019-02-08T21:00:32.767Z,65.42
2019-02-08T21:03:06.821Z,65.19
2019-02-08T21:05:38.480Z,64.79
2019-02-08T21:08:10.575Z,65.31
2019-02-08T21:10:42.516Z,65.90
2019-02-08T21:13:14.321Z,66.43
2019-02-08T21:15:45.991Z,66.04
2019-02-08T21:18:17.304Z,65.58
2019-02-08T21:20:50.310Z,65.10
2019-02-08T21:23:23.091Z,65.15
2019-02-08T21:25:54.609Z,65.32
2019-02-08T21:28:25.827Z,64.92
2019-02-08T21:30:57.074Z,65.12
2019-02-08T21:33:28.635Z,64.98
2019-02-08T21:35:59.893Z,65.09
2019-02-08T21:38:31.302Z,65.30
2019-02-08T21:41:02.647Z,65.15
2019-02-08T21:43:34.027Z,65.46
2019-02-08T21:46:05.347Z,65.19
2019-02-08T21:48:36.741Z,65.30
2019-02-08T21:51:08.255Z,65.24
2019-02-08T21:53:39.586Z,65.16
2019-02-08T21:56:11.184Z,64.94
2019-02-08T21:58:42.460Z,65.79
2019-02-08T22:01:13.733Z,67.12
2019-02-08T22:03:45.023Z,68.72
2019-02-08T22:06:16.299Z,71.91
2019-02-08T22:08:47.695Z,73.22
2019-02-08T22:11:19.012Z,73.32
2019-02-08T22:13:50.271Z,74.79
2019-02-08T22:16:21.643Z,78.02
2019-02-08T22:18:52.937Z,78.04
2019-02-08T22:21:24.371Z,77.28
2019-02-08T22:23:55.593Z,77.54
2019-02-08T22:26:26.947Z,78.61
2019-02-08T22:28:58.225Z,78.79
2019-02-08T22:31:29.445Z,79.00
2019-02-08T22:34:00.765Z,77.73
2019-02-08T22:36:32.029Z,79.40
2019-02-08T22:39:04.120Z,79.72
2019-02-08T22:41:35.406Z,80.92
2019-02-08T22:44:07.008Z,80.12
2019-02-08T22:46:38.240Z,80.13
2019-02-08T22:49:09.454Z,80.31
2019-02-08T22:51:42.005Z,80.46
2019-02-08T22:54:13.456Z,81.73
2019-02-08T22:56:47.534Z,81.41
2019-02-08T22:59:22.047Z,82.33
2019-02-08T23:01:53.596Z,83.32
2019-02-08T23:04:24.823Z,83.72
2019-02-08T23:06:56.111Z,83.65
2019-02-08T23:09:27.524Z,84.39
2019-02-08T23:11:58.894Z,83.89
2019-02-08T23:14:30.193Z,85.05
2019-02-08T23:17:01.579Z,85.34
2019-02-08T23:19:32.960Z,85.83
2019-02-08T23:22:04.348Z,85.63
2019-02-08T23:24:35.648Z,86.34
2019-02-08T23:27:06.927Z,86.11
2019-02-08T23:29:38.212Z,86.58
2019-02-08T23:32:09.610Z,87.33
2019-02-08T23:34:41.839Z,88.53
2019-02-08T23:37:13.133Z,88.45
2019-02-08T23:39:44.421Z,88.90
2019-02-08T23:42:15.731Z,88.82
2019-02-08T23:44:47.147Z,89.31
2019-02-08T23:47:18.470Z,89.48
2019-02-08T23:49:49.822Z,89.80
2019-02-08T23:52:21.135Z,90.56
2019-02-08T23:54:52.351Z,90.43
2019-02-08T23:57:23.647Z,90.48
2019-02-08T23:59:54.915Z,90.29
